createdAt,value
2022-10-30T00:02:23.338Z,16.90
2022-10-30T00:05:09.087Z,16.90
2022-10-30T00:07:58.960Z,16.90
2022-10-30T00:10:45.606Z,16.80
2022-10-30T00:13:31.164Z,16.80
2022-10-30T00:16:16.756Z,16.80
2022-10-30T00:19:02.056Z,16.80
2022-10-30T00:21:47.221Z,16.70
2022-10-30T00:24:32.762Z,16.70
2022-10-30T00:28:57.564Z,16.70
2022-10-30T00:31:43.088Z,16.60
2022-10-30T00:34:28.867Z,16.60
2022-10-30T00:37:14.396Z,16.60
2022-10-30T00:39:59.834Z,16.60
2022-10-30T00:42:45.593Z,16.50
2022-10-30T00:45:30.855Z,16.50
2022-10-30T00:48:16.541Z,16.50
2022-10-30T00:51:05.150Z,16.50
2022-10-30T00:53:51.478Z,16.50
2022-10-30T00:56:37.496Z,16.40
2022-10-30T00:59:28.265Z,16.40
2022-10-30T01:02:17.463Z,16.30
2022-10-30T01:05:04.210Z,16.30
2022-10-30T01:07:49.934Z,16.30
2022-10-30T01:10:38.813Z,16.30
2022-10-30T01:13:25.167Z,16.30
2022-10-30T01:16:21.980Z,16.40
2022-10-30T01:19:25.320Z,16.40
2022-10-30T01:22:25.991Z,16.50
2022-10-30T01:25:29.917Z,16.50
2022-10-30T01:28:25.778Z,16.50
2022-10-30T01:31:31.384Z,16.50
2022-10-30T01:34:37.968Z,16.50
2022-10-30T01:38:01.378Z,16.60
2022-10-30T01:40:47.132Z,16.50
2022-10-30T01:43:33.585Z,16.50
2022-10-30T01:47:10.387Z,16.50
2022-10-30T01:50:14.712Z,16.50
2022-10-30T01:53:26.782Z,16.50
2022-10-30T01:56:28.409Z,16.40
2022-10-30T01:59:34.078Z,16.40
2022-10-30T02:02:19.784Z,16.40
2022-10-30T02:05:08.754Z,16.30
2022-10-30T02:07:54.769Z,16.30
2022-10-30T02:10:42.934Z,16.30
2022-10-30T02:13:29.751Z,16.30
2022-10-30T02:16:15.866Z,16.30
2022-10-30T02:19:03.263Z,16.30
2022-10-30T02:21:52.221Z,16.20
2022-10-30T02:24:37.880Z,16.20
2022-10-30T02:27:23.100Z,16.20
2022-10-30T02:30:09.330Z,16.20
2022-10-30T02:32:54.700Z,16.20
2022-10-30T02:35:40.094Z,16.20
2022-10-30T02:38:26.523Z,16.10
2022-10-30T02:41:12.416Z,16.00
2022-10-30T02:43:57.687Z,16.00
2022-10-30T02:46:43.128Z,16.00
2022-10-30T02:49:28.640Z,16.00
2022-10-30T02:52:14.359Z,15.90
2022-10-30T02:55:00.727Z,15.90
2022-10-30T02:57:47.076Z,15.80
2022-10-30T03:00:32.778Z,15.80
2022-10-30T03:03:21.426Z,15.80
2022-10-30T03:06:11.912Z,15.70
2022-10-30T03:08:57.300Z,15.80
2022-10-30T03:11:44.380Z,15.70
2022-10-30T03:14:30.040Z,15.70
2022-10-30T03:17:15.383Z,15.70
2022-10-30T03:20:00.927Z,15.70
2022-10-30T03:22:46.426Z,15.70
2022-10-30T03:25:35.000Z,15.70
2022-10-30T03:28:24.882Z,15.60
2022-10-30T03:31:13.355Z,15.60
2022-10-30T03:34:01.971Z,15.60
2022-10-30T03:36:47.351Z,15.50
2022-10-30T03:39:32.875Z,15.50
2022-10-30T03:42:18.259Z,15.50
2022-10-30T03:45:04.832Z,15.40
2022-10-30T03:47:50.286Z,15.40
2022-10-30T03:50:35.460Z,15.40
2022-10-30T03:53:23.995Z,15.40
2022-10-30T03:56:10.074Z,15.40
2022-10-30T03:59:08.150Z,15.40
2022-10-30T04:01:56.948Z,15.40
2022-10-30T04:04:42.594Z,15.30
2022-10-30T04:07:27.810Z,15.30
2022-10-30T04:10:20.945Z,15.20
2022-10-30T04:13:11.048Z,15.20
2022-10-30T04:16:01.290Z,15.10
2022-10-30T04:18:46.774Z,15.10
2022-10-30T04:21:32.341Z,15.00
2022-10-30T04:24:18.890Z,15.10
2022-10-30T04:27:07.728Z,15.10
2022-10-30T04:29:53.239Z,15.10
2022-10-30T04:32:52.219Z,15.00
2022-10-30T04:35:38.439Z,15.00
2022-10-30T04:38:28.486Z,15.00
2022-10-30T04:41:15.263Z,14.90
2022-10-30T04:44:16.062Z,14.90
2022-10-30T04:47:01.717Z,14.90
2022-10-30T04:49:47.178Z,14.90
2022-10-30T04:52:33.048Z,14.80
2022-10-30T04:55:18.547Z,14.80
2022-10-30T04:58:07.272Z,14.70
2022-10-30T05:01:01.972Z,14.70
2022-10-30T05:03:50.683Z,14.60
2022-10-30T05:06:38.958Z,14.60
2022-10-30T05:09:24.588Z,14.50
2022-10-30T05:12:10.942Z,14.50
2022-10-30T05:15:07.813Z,14.40
2022-10-30T05:17:55.507Z,14.40
2022-10-30T05:20:40.732Z,14.40
2022-10-30T05:23:30.870Z,14.40
2022-10-30T05:26:19.491Z,14.50
2022-10-30T05:29:04.965Z,14.40
2022-10-30T05:31:50.541Z,14.40
2022-10-30T05:34:37.593Z,14.40
2022-10-30T05:37:23.117Z,14.40
2022-10-30T05:40:09.316Z,14.40
2022-10-30T05:42:54.528Z,14.40
2022-10-30T05:45:40.984Z,14.30
2022-10-30T05:48:26.380Z,14.30
2022-10-30T05:51:13.043Z,14.30
2022-10-30T05:54:03.382Z,14.30
2022-10-30T05:56:49.575Z,14.30
2022-10-30T05:59:34.732Z,14.30
2022-10-30T06:05:21.168Z,14.30
2022-10-30T06:08:07.626Z,14.30
2022-10-30T06:10:54.543Z,14.30
2022-10-30T06:13:51.604Z,14.30
2022-10-30T06:16:40.851Z,14.20
2022-10-30T06:19:45.103Z,14.20
2022-10-30T06:23:03.995Z,14.20
2022-10-30T06:26:01.911Z,14.30
2022-10-30T06:28:54.423Z,14.30
2022-10-30T06:31:41.361Z,14.20
2022-10-30T06:34:27.377Z,14.20
2022-10-30T06:37:13.235Z,14.20
2022-10-30T06:40:04.801Z,14.20
2022-10-30T06:43:09.629Z,14.20
2022-10-30T06:45:58.871Z,14.20
2022-10-30T06:48:47.850Z,14.20
2022-10-30T06:51:35.075Z,14.20
2022-10-30T06:54:21.354Z,14.20
2022-10-30T06:57:30.421Z,14.30
2022-10-30T07:00:30.520Z,14.40
2022-10-30T07:03:31.339Z,14.40
2022-10-30T07:06:16.870Z,14.50
2022-10-30T07:09:02.335Z,14.50
2022-10-30T07:11:47.770Z,14.50
2022-10-30T07:14:37.838Z,14.70
2022-10-30T07:17:38.865Z,14.70
2022-10-30T07:20:32.601Z,14.70
2022-10-30T07:23:18.250Z,14.80
2022-10-30T07:26:04.573Z,14.90
2022-10-30T07:29:02.387Z,14.90
2022-10-30T07:32:03.905Z,14.90
2022-10-30T07:34:58.031Z,15.00
2022-10-30T07:37:53.800Z,15.00
2022-10-30T07:40:40.331Z,15.10
2022-10-30T07:43:52.696Z,15.10
2022-10-30T07:47:07.235Z,15.20
2022-10-30T07:50:12.921Z,15.30
2022-10-30T07:52:58.435Z,15.40
2022-10-30T07:55:46.015Z,15.50
2022-10-30T07:58:31.334Z,15.50
2022-10-30T08:01:34.620Z,15.60
2022-10-30T08:04:46.350Z,15.70
2022-10-30T08:07:50.971Z,15.80
2022-10-30T08:10:36.672Z,15.90
2022-10-30T08:13:25.203Z,15.90
2022-10-30T08:16:10.516Z,16.10
2022-10-30T08:18:55.976Z,16.10
2022-10-30T08:21:46.442Z,16.20
2022-10-30T08:24:36.493Z,16.40
2022-10-30T08:27:21.852Z,16.50
2022-10-30T08:30:08.081Z,16.50
2022-10-30T08:32:57.895Z,16.70
2022-10-30T08:36:02.996Z,16.80
2022-10-30T08:38:50.984Z,17.00
2022-10-30T08:41:59.576Z,17.20
2022-10-30T08:44:48.892Z,17.50
2022-10-30T08:48:01.344Z,17.70
2022-10-30T08:50:47.938Z,17.90
2022-10-30T08:53:39.016Z,18.00
2022-10-30T08:56:29.789Z,18.10
2022-10-30T08:59:24.967Z,18.20
2022-10-30T09:02:15.112Z,18.40
2022-10-30T09:05:19.561Z,18.50
2022-10-30T09:08:33.948Z,18.60
2022-10-30T09:11:29.234Z,18.50
2022-10-30T09:14:16.404Z,18.60
2022-10-30T09:17:01.873Z,18.70
2022-10-30T09:22:43.302Z,18.80
2022-10-30T09:25:29.736Z,18.80
2022-10-30T09:28:25.644Z,18.90
2022-10-30T09:31:36.643Z,18.90
2022-10-30T09:34:23.777Z,18.90
2022-10-30T09:37:16.374Z,19.00
2022-10-30T09:40:06.167Z,19.10
2022-10-30T09:43:01.281Z,19.30
2022-10-30T09:46:05.833Z,19.40
2022-10-30T09:49:15.970Z,19.50
2022-10-30T09:52:28.148Z,19.60
2022-10-30T09:55:29.506Z,19.70
2022-10-30T09:58:41.228Z,19.80
2022-10-30T10:01:48.098Z,20.00
2022-10-30T10:04:42.022Z,20.10
2022-10-30T10:07:34.847Z,20.30
2022-10-30T10:10:36.301Z,20.40
2022-10-30T10:13:32.640Z,20.40
2022-10-30T10:16:20.501Z,20.50
2022-10-30T10:19:22.108Z,20.70
2022-10-30T10:22:28.191Z,20.70
2022-10-30T10:25:16.262Z,20.80
2022-10-30T10:28:29.776Z,20.90
2022-10-30T10:31:36.923Z,21.00
2022-10-30T10:34:35.633Z,21.20
2022-10-30T10:37:52.380Z,21.40
2022-10-30T10:40:56.184Z,21.60
2022-10-30T10:43:53.598Z,21.90
2022-10-30T10:47:08.825Z,22.00
2022-10-30T10:50:10.399Z,22.10
2022-10-30T10:53:09.597Z,22.30
2022-10-30T10:55:59.892Z,22.50
2022-10-30T10:59:01.016Z,22.80
2022-10-30T11:02:01.504Z,23.10
2022-10-30T11:04:52.252Z,23.50
2022-10-30T11:07:48.572Z,23.80
2022-10-30T11:10:33.915Z,24.30
2022-10-30T11:13:19.323Z,24.90
2022-10-30T11:16:30.688Z,25.30
2022-10-30T11:19:18.480Z,25.60
2022-10-30T11:22:13.307Z,25.60
2022-10-30T11:25:20.325Z,25.60
2022-10-30T11:28:05.969Z,25.70
2022-10-30T11:30:52.337Z,25.70
2022-10-30T11:33:37.639Z,25.70
2022-10-30T11:36:25.036Z,25.70
2022-10-30T11:39:31.864Z,25.70
2022-10-30T11:42:23.364Z,25.80
2022-10-30T11:45:30.870Z,25.60
2022-10-30T11:48:32.697Z,25.50
2022-10-30T11:51:31.600Z,25.30
2022-10-30T11:54:22.308Z,25.10
2022-10-30T11:57:37.891Z,24.80
2022-10-30T12:00:26.352Z,24.60
2022-10-30T12:03:30.010Z,24.50
2022-10-30T12:06:22.520Z,24.60
2022-10-30T12:09:12.590Z,24.70
2022-10-30T12:12:10.043Z,24.50
2022-10-30T12:14:56.008Z,24.40
2022-10-30T12:17:51.839Z,24.30
2022-10-30T12:20:45.656Z,24.20
2022-10-30T12:23:32.337Z,24.00
2022-10-30T12:26:18.037Z,23.80
2022-10-30T12:29:14.471Z,23.80
2022-10-30T12:32:06.182Z,23.70
2022-10-30T12:35:05.433Z,23.70
2022-10-30T12:37:53.895Z,23.60
2022-10-30T12:40:44.112Z,23.60
2022-10-30T12:43:34.886Z,23.50
2022-10-30T12:46:29.193Z,23.40
2022-10-30T12:49:40.463Z,23.40
2022-10-30T12:52:35.550Z,23.50
2022-10-30T12:55:45.874Z,23.40
2022-10-30T12:58:44.115Z,23.30
2022-10-30T13:01:51.815Z,23.30
2022-10-30T13:04:41.729Z,23.30
2022-10-30T13:07:30.581Z,23.30
2022-10-30T13:10:27.310Z,23.30
2022-10-30T13:13:23.478Z,23.20
2022-10-30T13:16:28.643Z,23.30
2022-10-30T13:19:14.270Z,23.20
2022-10-30T13:22:07.154Z,23.20
2022-10-30T13:25:19.948Z,23.20
2022-10-30T13:28:31.117Z,23.10
2022-10-30T13:31:44.707Z,23.10
2022-10-30T13:34:58.766Z,23.10
2022-10-30T13:37:59.127Z,23.20
2022-10-30T13:41:18.631Z,23.30
2022-10-30T13:44:24.458Z,23.70
2022-10-30T13:47:47.505Z,24.80
2022-10-30T13:50:54.712Z,26.50
2022-10-30T13:53:46.679Z,27.60
2022-10-30T13:56:33.868Z,28.30
2022-10-30T13:59:34.823Z,29.50
2022-10-30T14:02:37.097Z,29.80
2022-10-30T14:05:50.792Z,29.60
2022-10-30T14:08:48.044Z,29.20
2022-10-30T14:11:36.333Z,28.50
2022-10-30T14:14:30.143Z,27.80
2022-10-30T14:17:17.367Z,27.10
2022-10-30T14:20:12.143Z,26.40
2022-10-30T14:23:21.783Z,25.80
2022-10-30T14:26:10.170Z,25.10
2022-10-30T14:28:56.896Z,24.50
2022-10-30T14:31:42.102Z,24.00
2022-10-30T14:34:57.547Z,23.60
2022-10-30T14:37:45.635Z,23.30
2022-10-30T14:40:38.680Z,22.70
2022-10-30T14:43:35.788Z,22.40
2022-10-30T14:46:30.269Z,22.20
2022-10-30T14:49:36.698Z,22.00
2022-10-30T14:52:25.112Z,21.80
2022-10-30T14:55:31.931Z,21.50
2022-10-30T14:58:25.321Z,21.40
2022-10-30T15:01:48.169Z,21.10
2022-10-30T15:04:45.251Z,20.90
2022-10-30T15:07:57.356Z,20.70
2022-10-30T15:10:59.600Z,20.50
2022-10-30T15:13:52.358Z,20.30
2022-10-30T15:16:40.605Z,20.20
2022-10-30T15:19:26.188Z,20.00
2022-10-30T15:22:19.031Z,19.90
2022-10-30T15:25:06.399Z,19.80
2022-10-30T15:27:55.320Z,19.80
2022-10-30T15:31:02.844Z,19.70
2022-10-30T15:33:48.480Z,19.80
2022-10-30T15:36:41.946Z,19.90
2022-10-30T15:39:27.354Z,19.90
2022-10-30T15:42:16.430Z,19.70
2022-10-30T15:45:05.399Z,19.60
2022-10-30T15:47:59.731Z,19.50
2022-10-30T15:50:53.151Z,19.30
2022-10-30T15:53:48.232Z,19.20
2022-10-30T15:56:44.547Z,19.10
2022-10-30T15:59:39.703Z,19.00
2022-10-30T16:02:26.905Z,18.90
2022-10-30T16:05:23.187Z,18.80
2022-10-30T16:08:24.289Z,18.70
2022-10-30T16:11:10.081Z,18.70
2022-10-30T16:14:04.270Z,18.60
2022-10-30T16:16:50.978Z,18.50
2022-10-30T16:19:44.510Z,18.50
2022-10-30T16:22:41.005Z,18.40
2022-10-30T16:25:26.431Z,18.30
2022-10-30T16:28:32.677Z,18.30
2022-10-30T16:31:42.930Z,18.20
2022-10-30T16:34:37.655Z,18.20
2022-10-30T16:37:27.637Z,18.30
2022-10-30T16:40:14.569Z,18.20
2022-10-30T16:43:03.294Z,18.20
2022-10-30T16:45:52.887Z,18.10
2022-10-30T16:48:38.558Z,18.10
2022-10-30T16:51:24.407Z,18.10
2022-10-30T16:54:24.018Z,18.20
2022-10-30T16:57:33.413Z,18.10
2022-10-30T17:00:27.309Z,18.10
2022-10-30T17:03:13.307Z,18.10
2022-10-30T17:06:07.602Z,18.10
2022-10-30T17:08:57.226Z,18.00
2022-10-30T17:11:47.987Z,18.00
2022-10-30T17:14:44.672Z,18.00
2022-10-30T17:17:34.236Z,17.90
2022-10-30T17:20:19.709Z,17.90
2022-10-30T17:23:19.535Z,17.80
2022-10-30T17:26:09.720Z,17.70
2022-10-30T17:28:55.146Z,17.60
2022-10-30T17:31:40.250Z,17.60
2022-10-30T17:34:26.773Z,17.60
2022-10-30T17:37:12.376Z,17.50
2022-10-30T17:39:57.754Z,17.50
2022-10-30T17:42:43.527Z,17.50
2022-10-30T17:45:28.794Z,17.40
2022-10-30T17:48:16.599Z,17.40
2022-10-30T17:51:02.323Z,17.30
2022-10-30T17:53:48.546Z,17.30
2022-10-30T17:56:34.508Z,17.30
2022-10-30T17:59:19.810Z,17.30
2022-10-30T18:02:20.160Z,17.30
2022-10-30T18:05:21.394Z,17.20
2022-10-30T18:08:06.998Z,17.20
2022-10-30T18:10:52.315Z,17.10
2022-10-30T18:13:37.974Z,17.00
2022-10-30T18:16:23.801Z,17.00
2022-10-30T18:19:11.256Z,16.90
2022-10-30T18:21:56.328Z,16.90
2022-10-30T18:24:42.851Z,16.90
2022-10-30T18:27:28.130Z,16.80
2022-10-30T18:30:15.209Z,16.70
2022-10-30T18:33:01.386Z,16.70
2022-10-30T18:35:50.746Z,16.60
2022-10-30T18:38:35.966Z,16.60
2022-10-30T18:41:32.858Z,16.60
2022-10-30T18:44:21.181Z,16.50
2022-10-30T18:47:10.986Z,16.50
2022-10-30T18:49:56.651Z,16.40
2022-10-30T18:52:42.148Z,16.40
2022-10-30T18:55:35.245Z,16.40
2022-10-30T18:58:20.429Z,16.40
2022-10-30T19:01:11.990Z,16.40
2022-10-30T19:04:00.964Z,16.40
2022-10-30T19:06:46.891Z,16.30
2022-10-30T19:09:32.511Z,16.30
2022-10-30T19:12:18.156Z,16.30
2022-10-30T19:15:21.146Z,16.30
2022-10-30T19:18:06.780Z,16.30
2022-10-30T19:21:14.538Z,16.20
2022-10-30T19:24:01.139Z,16.20
2022-10-30T19:26:46.285Z,16.20
2022-10-30T19:29:34.602Z,16.20
2022-10-30T19:32:19.988Z,16.20
2022-10-30T19:35:06.505Z,16.20
2022-10-30T19:37:51.884Z,16.10
2022-10-30T19:40:39.059Z,16.10
2022-10-30T19:43:24.691Z,16.00
2022-10-30T19:46:14.578Z,16.00
2022-10-30T19:49:00.661Z,16.00
2022-10-30T19:51:46.539Z,15.90
2022-10-30T19:54:32.150Z,15.90
2022-10-30T20:00:13.329Z,15.90
2022-10-30T20:03:00.002Z,15.90
2022-10-30T20:05:47.815Z,15.80
2022-10-30T20:08:34.444Z,15.80
2022-10-30T20:11:20.057Z,15.80
2022-10-30T20:14:05.418Z,15.80
2022-10-30T20:16:50.999Z,15.80
2022-10-30T20:19:36.438Z,15.70
2022-10-30T20:22:27.159Z,15.70
2022-10-30T20:25:13.813Z,15.60
2022-10-30T20:28:13.266Z,15.60
2022-10-30T20:30:58.780Z,15.50
2022-10-30T20:33:44.030Z,15.50
2022-10-30T20:36:29.512Z,15.40
2022-10-30T20:39:14.929Z,15.40
2022-10-30T20:42:00.414Z,15.30
2022-10-30T20:44:46.675Z,15.20
2022-10-30T20:47:32.081Z,15.10
2022-10-30T20:50:19.368Z,15.10
2022-10-30T20:53:06.155Z,15.00
2022-10-30T20:55:52.018Z,14.90
2022-10-30T20:58:37.438Z,14.90
2022-10-30T21:01:22.990Z,14.80
2022-10-30T21:04:08.067Z,14.80
2022-10-30T21:06:55.823Z,14.70
2022-10-30T21:09:41.369Z,14.70
2022-10-30T21:12:26.884Z,14.70
2022-10-30T21:15:14.768Z,14.60
2022-10-30T21:18:00.650Z,14.60
2022-10-30T21:20:46.246Z,14.60
2022-10-30T21:23:32.053Z,14.60
2022-10-30T21:26:17.208Z,14.50
2022-10-30T21:29:02.816Z,14.40
2022-10-30T21:31:51.149Z,14.40
2022-10-30T21:34:36.841Z,14.40
2022-10-30T21:37:22.567Z,14.30
2022-10-30T21:40:08.783Z,14.30
2022-10-30T21:42:56.326Z,14.20
2022-10-30T21:45:43.835Z,14.20
2022-10-30T21:48:29.567Z,14.20
2022-10-30T21:51:20.592Z,14.10
2022-10-30T21:54:06.147Z,14.10
2022-10-30T21:56:52.167Z,14.00
2022-10-30T21:59:37.319Z,14.00
2022-10-30T22:02:22.692Z,14.00
2022-10-30T22:05:08.645Z,13.90
2022-10-30T22:07:57.114Z,13.90
2022-10-30T22:10:42.827Z,13.90
2022-10-30T22:13:30.399Z,13.90
2022-10-30T22:16:21.973Z,14.00
2022-10-30T22:19:10.323Z,14.00
2022-10-30T22:21:59.067Z,14.10
2022-10-30T22:24:44.346Z,14.10
2022-10-30T22:27:33.314Z,14.10
2022-10-30T22:30:18.578Z,14.10
2022-10-30T22:33:04.162Z,14.10
2022-10-30T22:35:49.678Z,14.20
2022-10-30T22:38:35.637Z,14.10
2022-10-30T22:41:27.105Z,14.10
2022-10-30T22:44:17.342Z,14.10
2022-10-30T22:47:02.720Z,14.10
2022-10-30T22:49:48.294Z,14.20
2022-10-30T22:52:33.983Z,14.10
2022-10-30T22:55:19.652Z,14.20
2022-10-30T22:58:07.805Z,14.10
2022-10-30T23:00:53.461Z,14.20
2022-10-30T23:03:39.662Z,14.10
2022-10-30T23:06:25.547Z,14.10
2022-10-30T23:09:19.490Z,14.00
2022-10-30T23:12:05.563Z,13.80
2022-10-30T23:14:51.030Z,13.80
2022-10-30T23:17:37.265Z,13.60
2022-10-30T23:20:22.903Z,13.60
2022-10-30T23:23:08.206Z,13.60
2022-10-30T23:25:54.017Z,13.50
2022-10-30T23:28:39.814Z,13.50
2022-10-30T23:31:33.461Z,13.50
2022-10-30T23:34:18.943Z,13.40
2022-10-30T23:37:07.226Z,13.50
2022-10-30T23:39:52.598Z,13.40
2022-10-30T23:42:41.352Z,13.40
2022-10-30T23:45:26.766Z,13.40
2022-10-30T23:48:11.966Z,13.40
2022-10-30T23:51:00.063Z,13.40
2022-10-30T23:53:45.563Z,13.30
2022-10-30T23:56:31.159Z,13.30
2022-10-30T23:59:19.411Z,13.30
